Flight Track Log - Related Links

Times and Time Zones

All times are in EDT time to prevent confusion due to time zone crossing. See the RPA3392 flight status page for this flight to view local times or setup timezone preferences in your user account.

Time Position Orientation Groundspeed Altitude Reporting Facility
EDT Latitude Longitude Course Direction KTS MPH feet Rate Location/Type
Tue 11:04:02 PM 38.8667 -77.0500 31° Northeast 153 176 1,400  Level Potomac TRACON
Tue 11:04:57 PM 38.9000 -77.0881 318° Northwest 170 196 3,300 2,483 Climbing Washington Center
Tue 11:05:58 PM 38.9472 -77.1397 320° Northwest 199 229 6,200 2,874 Climbing Washington Center
Tue 11:06:00 PM 39.1019 -76.8432 31° Northeast  Level Estimated
Tue 11:06:56 PM 39.0075 -77.1489 353° North 212 244 9,000  Level Washington Center
Tue 11:07:00 PM 39.1852 -76.7781 31° Northeast  Level Estimated
Tue 11:07:58 PM 39.0297 -77.0453 75° East 190 219 11,000  Level Washington Center
Tue 11:08:00 PM 39.2685 -76.7128 31° Northeast  Level Estimated
Tue 11:08:55 PM 39.0478 -76.9253 79° East 273 314 13,200  Level Washington Center
Tue 11:09:00 PM 39.3517 -76.6473 31° Northeast  Level Estimated
Tue 11:09:55 PM 39.0658 -76.8000 79° East 306 352 15,700  Level Washington Center
Tue 11:10:56 PM 39.0858 -76.6692 79° East 348 400 19,200 2,803 Climbing Washington Center
Tue 11:11:57 PM 39.1036 -76.5383 80° East 368 423 21,400 1,750 Climbing Washington Center
Tue 11:12:56 PM 39.1461 -76.3919 69° East 418 481 22,700 1,576 Climbing Washington Center
Tue 11:13:55 PM 39.2264 -76.2533 53° Northeast 441 507 24,500 1,160 Climbing Washington Center
Tue 11:14:55 PM 39.3042 -76.1172 54° Northeast 479 551 25,000 248 Climbing Washington Center
Tue 11:15:56 PM 39.3964 -75.9567 53° Northeast 514 592 25,000  Level Washington Center
Tue 11:16:57 PM 39.4883 -75.7933 54° Northeast 546 628 25,000  Level Washington Center
Tue 11:17:57 PM 39.5781 -75.6319 54° Northeast 553 636 25,000  Level Washington Center
Tue 11:18:56 PM 39.6678 -75.4731 54° Northeast 553 636 25,000  Level Washington Center
Tue 11:20:08 PM 39.7706 -75.2894 54° Northeast 541 623 25,000  Level New York Center
Tue 11:21:09 PM 39.8625 -75.1169 55° Northeast 528 608 25,000  Level New York Center
Tue 11:22:08 PM 39.9450 -74.9678 54° Northeast 522 601 25,000  Level New York Center
Tue 11:23:08 PM 40.0275 -74.8128 55° Northeast 522 601 25,000  Level New York Center
Tue 11:24:08 PM 40.1119 -74.6603 54° Northeast 522 601 25,000  Level New York Center
Tue 11:25:08 PM 40.1983 -74.5075 53° Northeast 522 601 25,000  Level New York Center
Tue 11:26:08 PM 40.3086 -74.3800 41° Northeast 522 601 25,000  Level New York Center
Tue 11:28:30 PM 40.6233 -74.2747 14° North 488 562 25,000  Level Boston Center
Tue 11:29:33 PM 40.7533 -74.2475 North 484 557 25,000  Level Boston Center
Tue 11:30:34 PM 40.8836 -74.2197 North 479 551 25,000  Level Boston Center
Tue 11:31:35 PM 41.0147 -74.1906 10° North 475 547 25,000  Level Boston Center
Tue 11:32:33 PM 41.1458 -74.1619 North 475 547 25,000  Level Boston Center
Tue 11:33:34 PM 41.2769 -74.1328 North 476 548 25,000  Level Boston Center
Tue 11:34:35 PM 41.4072 -74.1042 North 475 547 25,000 -400 Level Boston Center
Tue 11:35:34 PM 41.5369 -74.0747 10° North 473 544 24,200 -1,463 Descending Boston Center
Tue 11:36:38 PM 41.6583 -74.0472 10° North 446 513 22,000 -2,000 Descending Boston Center
Tue 11:37:37 PM 41.7642 -74.0233 10° North 397 457 20,100 -2,132 Descending Boston Center
Tue 11:38:39 PM 41.8769 -73.9989 North 381 438 17,700 -2,041 Descending Boston Center
Tue 11:39:14 PM 41.9308 -73.9869 North 371 427 16,800 -1,729 Descending Boston Center
Tue 11:39:38 PM 41.9778 -73.9767 North 371 427 16,000 -1,814 Descending Boston Center
Tue 11:40:40 PM 42.0767 -73.9547 North 355 409 14,200 -1,765 Descending Boston Center
Tue 11:41:37 PM 42.1697 -73.9325 10° North 339 390 12,500 -1,550 Descending Boston Center
Tue 11:42:40 PM 42.2519 -73.9156 North 297 342 11,100 -1,475 Descending Boston Center
Tue 11:43:39 PM 42.3231 -73.8700 25° Northeast 286 329 9,500 -1,600 Descending Boston Center
Tue 11:44:40 PM 42.3864 -73.8181 31° Northeast 270 311 7,900 -1,700 Descending Boston Center
Tue 11:45:39 PM 42.4442 -73.7672 33° Northeast 252 290 6,100 -1,967 Descending Boston Center
Tue 11:46:42 PM 42.5083 -73.7164 30° Northeast 252 290 3,900 -1,258 Descending Boston Center
Tue 11:47:43 PM 42.5669 -73.6672 32° Northeast 251 289 3,500 -198 Descending Boston Center
Tue 11:48:43 PM 42.6244 -73.6186 32° Northeast 249 287 3,500  Level Boston Center
Tue 11:49:20 PM 42.6528 -73.5897 37° Northeast 210 242 3,500  Level Boston Center
Tue 11:49:41 PM 42.6719 -73.5781 24° Northeast 203 234 3,500 -214 Level Boston Center
Tue 11:50:44 PM 42.7167 -73.5478 26° Northeast 190 219 3,200 -242 Descending Boston Center
Tue 11:51:45 PM 42.7503 -73.5728 331° Northwest 164 189 3,000 -152 Descending Boston Center
Tue 11:52:03 PM 42.7519 -73.5878 279° West 149 171 3,000 -526 Level Boston Center
Tue 11:52:42 PM 42.7539 -73.6286 274° West 153 176 2,500 -700 Descending Boston Center
Tue 11:53:03 PM 42.7525 -73.6433 263° West 148 170 2,300 -787 Descending Boston Center
Tue 11:53:43 PM 42.7519 -73.6842 269° West 150 173 1,700 -787 Descending Boston Center
Tue 11:54:04 PM 42.7511 -73.6983 265° West 136 157 1,500 -484 Descending Boston Center
Tue 11:54:45 PM 42.7508 -73.7278 269° West 112 129 1,200 -407 Descending Boston Center
Tue 11:55:03 PM 42.7508 -73.7358 270° West 97 112 1,100 -610 Descending Boston Center
Tue 11:55:44 PM 42.7500 -73.7669 268° West 105 121 600 -677 Descending Boston Center
Tue 11:56:05 PM 42.7497 -73.7764 268° West 104 120 400 -381 Descending Boston Center
Tue 11:56:47 PM 42.7489 -73.8081 268° West 109 125 200 -286 Descending Boston Center

Login

Don't have an account? Register now (free) for customized features, flight alerts, and more!